Time;durP1;ratioP1;P1;durP2;ratioP2;P2;SDS_P1;SDS_P2;PMS_P1;PMS_P2;Temp;Humidity;BMP_temperature;BMP_pressure;BME280_temperature;BME280_humidity;BME280_pressure;Samples;Min_cycle;Max_cycle;Signal;HPM_P1;HPM_P2
2023/03/17 00:01:27;;;;;;;8.23;3.20;;;7.10;99.90;;;;;;5075007;28;20806;-91
2023/03/17 00:03:54;;;;;;;8.38;3.10;;;7.10;99.90;;;;;;5059814;28;20043;-90
2023/03/17 00:06:29;;;;;;;8.15;2.95;;;7.10;99.90;;;;;;5060637;28;20481;-91
2023/03/17 00:08:56;;;;;;;7.25;2.90;;;5.30;99.90;;;;;;5079795;28;20047;-90
2023/03/17 00:11:22;;;;;;;8.90;3.15;;;7.10;99.90;;;;;;5074284;28;20044;-90
2023/03/17 00:13:48;;;;;;;8.23;3.03;;;8.10;99.90;;;;;;5043446;28;20043;-90
2023/03/17 00:16:24;;;;;;;8.38;3.15;;;7.20;99.90;;;;;;5060489;28;20497;-92
2023/03/17 00:18:52;;;;;;;8.65;3.03;;;7.20;99.90;;;;;;5068475;28;20039;-90
2023/03/17 00:21:28;;;;;;;9.30;3.00;;;7.10;99.90;;;;;;5060496;28;20237;-91
2023/03/17 00:23:55;;;;;;;8.50;3.25;;;7.10;99.90;;;;;;5076280;28;20091;-91
2023/03/17 00:26:21;;;;;;;9.50;3.03;;;7.10;99.90;;;;;;5059770;28;20048;-90
2023/03/17 00:28:47;;;;;;;7.43;2.70;;;7.10;99.90;;;;;;5057911;28;20040;-89
2023/03/17 00:31:16;;;;;;;7.32;3.00;;;7.20;99.90;;;;;;5073993;28;20060;-90
2023/03/17 00:33:44;;;;;;;10.50;3.25;;;7.10;99.90;;;;;;5073537;28;20497;-91
2023/03/17 00:36:18;;;;;;;8.82;3.10;;;7.20;99.90;;;;;;5076179;28;20047;-91
2023/03/17 00:38:44;;;;;;;20.77;3.50;;;7.10;99.90;;;;;;5076458;28;20032;-90
2023/03/17 00:41:11;;;;;;;8.43;3.10;;;;;;;;;;5078488;28;20067;-94
2023/03/17 00:43:37;;;;;;;8.07;3.20;;;7.20;99.90;;;;;;5078005;28;20041;-90
2023/03/17 00:46:20;;;;;;;8.18;3.15;;;7.20;99.90;;;;;;5056477;28;20040;-90
2023/03/17 00:48:47;;;;;;;9.65;3.00;;;7.20;99.90;;;;;;5074025;28;20059;-91
2023/03/17 00:51:16;;;;;;;8.10;3.05;;;7.20;99.90;;;;;;5069545;28;20581;-90
2023/03/17 00:53:43;;;;;;;8.75;2.78;;;7.20;99.90;;;;;;5061629;28;20094;-90
2023/03/17 00:56:15;;;;;;;7.80;3.00;;;7.20;99.90;;;;;;5055239;28;20108;-90
2023/03/17 00:58:41;;;;;;;8.80;2.90;;;7.20;99.90;;;;;;5048745;28;20452;-90
2023/03/17 01:01:07;;;;;;;8.05;2.90;;;7.20;99.90;;;;;;5073285;28;20295;-90
2023/03/17 01:03:33;;;;;;;8.50;2.80;;;7.10;99.90;;;;;;5042843;28;20075;-91
2023/03/17 01:06:01;;;;;;;8.13;3.00;;;7.20;99.90;;;;;;5038962;28;20037;-91
2023/03/17 01:08:28;;;;;;;8.82;2.72;;;7.10;99.90;;;;;;5053310;28;20040;-91
2023/03/17 01:10:55;;;;;;;8.88;3.08;;;7.20;99.90;;;;;;5066817;28;20478;-92
2023/03/17 01:13:22;;;;;;;8.60;3.25;;;7.20;99.90;;;;;;5065707;28;20047;-90
2023/03/17 01:15:49;;;;;;;10.73;3.10;;;;;;;;;;5073818;28;20541;-90
2023/03/17 01:18:18;;;;;;;8.50;3.20;;;7.30;99.90;;;;;;5068312;28;20573;-91
2023/03/17 01:20:44;;;;;;;7.65;2.75;;;7.20;99.90;;;;;;5073253;28;20076;-91
2023/03/17 01:23:11;;;;;;;8.23;3.15;;;7.20;99.90;;;;;;5038614;28;20072;-91
2023/03/17 01:25:38;;;;;;;7.97;3.05;;;7.30;99.90;;;;;;5055495;28;20044;-90
2023/03/17 01:28:05;;;;;;;8.30;3.20;;;8.40;99.90;;;;;;5056777;28;20041;-92
2023/03/17 01:30:36;;;;;;;7.22;2.70;;;7.20;99.90;;;;;;5061638;28;20070;-92
2023/03/17 01:33:03;;;;;;;8.35;3.10;;;7.20;99.90;;;;;;5073971;28;20040;-91
2023/03/17 01:35:30;;;;;;;8.05;2.65;;;;;;;;;;5067157;28;20048;-91
2023/03/17 01:37:56;;;;;;;8.40;3.08;;;;;;;;;;5063556;28;20044;-90
2023/03/17 01:40:26;;;;;;;8.68;3.13;;;7.20;99.90;;;;;;5054450;28;20416;-91
2023/03/17 01:42:57;;;;;;;9.02;3.00;;;7.20;99.90;;;;;;5056005;28;20071;-91
2023/03/17 01:46:00;;;;;;;8.05;3.08;;;7.20;99.90;;;;;;5064608;28;20115;-91
2023/03/17 01:48:27;;;;;;;8.40;3.25;;;7.20;99.90;;;;;;5068406;28;20048;-91
2023/03/17 01:50:55;;;;;;;8.85;3.17;;;7.10;99.90;;;;;;5060634;28;20409;-91
2023/03/17 01:53:22;;;;;;;9.93;3.05;;;7.20;99.90;;;;;;5081775;28;20044;-91
2023/03/17 01:55:50;;;;;;;7.60;3.10;;;7.10;99.90;;;;;;5046715;28;20101;-91
2023/03/17 01:58:20;;;;;;;8.45;3.10;;;7.10;99.90;;;;;;5065354;28;20119;-91
2023/03/17 02:00:46;;;;;;;7.68;2.92;;;8.30;99.90;;;;;;5052486;28;20048;-92
2023/03/17 02:03:12;;;;;;;9.90;3.53;;;7.10;99.90;;;;;;5041189;28;20237;-90
2023/03/17 02:05:38;;;;;;;8.52;3.33;;;7.10;99.90;;;;;;5055690;28;20049;-91
2023/03/17 02:08:11;;;;;;;8.40;3.17;;;7.00;99.90;;;;;;5050344;28;20040;-91
2023/03/17 02:10:38;;;;;;;9.07;3.25;;;8.10;99.90;;;;;;5067574;28;20532;-89
2023/03/17 02:13:04;;;;;;;7.45;2.67;;;7.00;99.90;;;;;;5049542;28;20033;-94
2023/03/17 02:15:42;;;;;;;7.78;2.97;;;8.30;99.90;;;;;;5055573;28;20044;-93
2023/03/17 02:18:13;;;;;;;7.90;2.95;;;7.00;99.90;;;;;;5064688;28;20087;-90
2023/03/17 02:20:38;;;;;;;9.75;3.10;;;6.40;99.90;;;;;;5039857;28;20044;-90
2023/03/17 02:23:06;;;;;;;8.88;3.25;;;7.60;99.90;;;;;;5047492;28;20397;-91
2023/03/17 02:25:34;;;;;;;7.72;2.92;;;6.90;99.90;;;;;;5023189;28;20123;-90
2023/03/17 02:28:09;;;;;;;7.95;3.05;;;7.60;99.90;;;;;;5054867;28;20120;-90
2023/03/17 02:30:35;;;;;;;11.10;3.50;;;6.90;99.90;;;;;;5054881;28;20045;-91
2023/03/17 02:33:02;;;;;;;7.80;3.40;;;7.40;99.90;;;;;;5054570;28;20470;-91
2023/03/17 02:35:28;;;;;;;10.40;3.13;;;6.80;99.90;;;;;;5039339;28;20040;-92
2023/03/17 02:37:55;;;;;;;8.50;3.30;;;7.60;99.90;;;;;;5019028;28;20041;-90
2023/03/17 02:40:24;;;;;;;9.15;3.20;;;6.70;99.90;;;;;;5070422;28;20048;-91
2023/03/17 02:42:50;;;;;;;9.50;3.25;;;7.40;99.90;;;;;;5055544;28;20516;-92
2023/03/17 02:45:16;;;;;;;8.82;3.28;;;6.70;99.90;;;;;;5042361;28;20052;-92
2023/03/17 02:47:42;;;;;;;9.85;3.30;;;6.70;99.90;;;;;;5049133;28;20048;-90
2023/03/17 02:50:15;;;;;;;7.93;3.20;;;6.70;99.90;;;;;;5053566;28;20032;-90
2023/03/17 02:52:41;;;;;;;7.70;3.00;;;6.70;99.90;;;;;;5043684;28;20052;-90
2023/03/17 02:55:07;;;;;;;7.90;3.13;;;6.70;99.90;;;;;;5054203;28;20045;-90
2023/03/17 02:57:33;;;;;;;9.02;3.40;;;6.60;99.90;;;;;;5077593;28;20131;-92
2023/03/17 02:59:59;;;;;;;8.52;3.08;;;6.30;99.90;;;;;;5021857;28;20119;-91
2023/03/17 03:02:25;;;;;;;8.00;3.20;;;7.40;99.90;;;;;;5054522;28;20051;-91
2023/03/17 03:04:52;;;;;;;8.85;3.20;;;7.20;99.90;;;;;;5032060;28;20044;-92
2023/03/17 03:07:18;;;;;;;7.88;2.95;;;6.60;99.90;;;;;;5033573;28;20068;-90
2023/03/17 03:09:44;;;;;;;8.48;3.45;;;6.60;99.90;;;;;;5056915;28;20513;-89
2023/03/17 03:12:10;;;;;;;7.80;3.22;;;6.60;99.90;;;;;;5053472;28;20050;-90
2023/03/17 03:14:36;;;;;;;10.60;3.47;;;6.60;99.90;;;;;;5043280;28;20186;-92
2023/03/17 03:17:03;;;;;;;8.73;3.25;;;8.10;99.90;;;;;;5059003;28;20044;-91
2023/03/17 03:19:29;;;;;;;7.82;2.90;;;;;;;;;;5055943;28;20032;-90
2023/03/17 03:21:55;;;;;;;9.55;3.63;;;6.60;99.90;;;;;;5059188;28;20108;-92
2023/03/17 03:24:21;;;;;;;8.50;3.22;;;7.10;99.90;;;;;;5075636;28;20114;-91
2023/03/17 03:26:47;;;;;;;9.32;3.53;;;6.50;99.90;;;;;;5044647;28;20044;-90
2023/03/17 03:29:13;;;;;;;10.15;3.42;;;6.50;99.90;;;;;;5059347;28;20040;-90
2023/03/17 03:31:41;;;;;;;9.48;3.40;;;6.50;99.90;;;;;;5071928;28;20036;-91
2023/03/17 03:34:09;;;;;;;8.50;3.53;;;6.50;99.90;;;;;;5057153;28;20163;-91
2023/03/17 03:36:35;;;;;;;9.70;3.70;;;7.70;99.90;;;;;;5058942;28;20040;-91
2023/03/17 03:39:02;;;;;;;9.80;3.20;;;6.40;99.90;;;;;;5065290;28;20124;-89
2023/03/17 03:41:27;;;;;;;8.32;3.28;;;7.80;99.90;;;;;;5055432;28;20122;-90
2023/03/17 03:43:53;;;;;;;8.20;3.45;;;6.50;99.90;;;;;;5048173;28;20532;-90
2023/03/17 03:46:19;;;;;;;8.93;3.55;;;6.50;99.90;;;;;;5046588;28;20036;-92
2023/03/17 03:48:45;;;;;;;9.15;3.35;;;6.50;99.90;;;;;;5047469;28;20115;-90
2023/03/17 03:51:10;;;;;;;8.95;3.50;;;6.50;99.90;;;;;;5061919;28;20052;-91
2023/03/17 03:53:36;;;;;;;8.43;3.47;;;7.70;99.90;;;;;;5034157;28;20037;-91
2023/03/17 03:56:02;;;;;;;9.75;3.50;;;;;;;;;;5053763;28;20040;-90
2023/03/17 03:58:28;;;;;;;9.15;3.53;;;6.50;99.90;;;;;;5052851;28;20075;-91
2023/03/17 04:00:54;;;;;;;9.27;3.80;;;7.00;99.90;;;;;;5053771;28;20044;-91
2023/03/17 04:03:20;;;;;;;8.73;3.45;;;6.50;99.90;;;;;;5074091;28;20044;-91
2023/03/17 04:05:46;;;;;;;9.60;3.55;;;7.40;99.90;;;;;;5054828;28;20032;-92
2023/03/17 04:08:12;;;;;;;9.48;3.78;;;6.50;99.90;;;;;;5056049;28;20037;-92
2023/03/17 04:10:38;;;;;;;9.63;3.47;;;;;;;;;;5042875;28;20041;-90
2023/03/17 04:13:03;;;;;;;7.78;3.30;;;6.50;99.90;;;;;;5053730;28;20048;-90
2023/03/17 04:15:29;;;;;;;8.57;3.53;;;6.50;99.90;;;;;;5072748;28;20063;-91
2023/03/17 04:17:55;;;;;;;8.60;3.67;;;6.40;99.90;;;;;;5037046;28;20040;-91
2023/03/17 04:20:21;;;;;;;8.63;3.60;;;;;;;;;;5051401;28;20048;-92
2023/03/17 04:22:47;;;;;;;9.23;3.47;;;6.50;99.90;;;;;;5058211;28;20048;-92
2023/03/17 04:25:14;;;;;;;9.10;3.75;;;6.40;99.90;;;;;;5039145;28;20036;-91
2023/03/17 04:27:41;;;;;;;13.10;3.47;;;6.50;99.90;;;;;;5065876;28;20040;-90
2023/03/17 04:30:09;;;;;;;9.23;3.58;;;6.50;99.90;;;;;;5043329;28;20056;-92
2023/03/17 04:32:35;;;;;;;8.38;3.40;;;6.50;99.90;;;;;;5053065;28;20043;-90
2023/03/17 04:35:01;;;;;;;8.75;3.60;;;6.40;99.90;;;;;;5057358;28;20041;-92
2023/03/17 04:37:27;;;;;;;8.48;3.55;;;6.40;99.90;;;;;;5075572;28;20074;-92
2023/03/17 04:39:54;;;;;;;8.82;3.65;;;7.60;99.90;;;;;;5059481;28;20032;-90
2023/03/17 04:42:20;;;;;;;8.82;3.35;;;6.40;99.90;;;;;;5074437;28;20065;-89
2023/03/17 04:44:46;;;;;;;8.52;3.50;;;6.40;99.90;;;;;;5038316;28;20158;-93
2023/03/17 04:47:12;;;;;;;8.52;3.53;;;8.00;99.90;;;;;;5040731;28;20044;-91
2023/03/17 04:49:37;;;;;;;8.68;3.30;;;7.20;99.90;;;;;;5058360;28;20290;-90
2023/03/17 04:52:03;;;;;;;9.07;3.50;;;6.40;99.90;;;;;;5044128;28;20051;-91
2023/03/17 04:54:29;;;;;;;9.77;3.58;;;6.40;99.90;;;;;;5060565;28;20047;-91
2023/03/17 04:56:55;;;;;;;9.85;3.90;;;7.70;99.90;;;;;;5057812;28;20032;-91
2023/03/17 04:59:21;;;;;;;8.82;3.38;;;;;;;;;;5039735;28;20076;-92
2023/03/17 05:01:47;;;;;;;8.82;3.35;;;;;;;;;;5068425;28;20045;-91
2023/03/17 05:04:13;;;;;;;10.90;3.88;;;6.40;99.90;;;;;;5038600;28;20185;-91
2023/03/17 05:06:39;;;;;;;9.73;3.75;;;6.30;99.90;;;;;;5072378;28;20085;-91
2023/03/17 05:09:08;;;;;;;8.57;3.30;;;6.30;99.90;;;;;;5047008;28;20051;-91
2023/03/17 05:11:35;;;;;;;10.27;3.95;;;6.40;99.90;;;;;;5060407;28;20044;-91
2023/03/17 05:14:00;;;;;;;9.05;3.40;;;6.40;99.90;;;;;;5055299;28;20196;-91
2023/03/17 05:16:26;;;;;;;8.52;3.40;;;6.40;99.90;;;;;;5054042;28;20113;-92
2023/03/17 05:18:52;;;;;;;8.98;3.30;;;;;;;;;;5039756;28;20067;-90
2023/03/17 05:21:18;;;;;;;9.18;3.58;;;6.40;99.90;;;;;;5057293;28;20078;-91
2023/03/17 05:23:44;;;;;;;9.80;3.80;;;;;;;;;;5051807;28;20053;-91
2023/03/17 05:26:10;;;;;;;8.60;3.33;;;6.40;99.90;;;;;;5069081;28;20584;-91
2023/03/17 05:28:36;;;;;;;10.18;3.50;;;6.40;99.90;;;;;;5040460;28;20124;-91
2023/03/17 05:31:02;;;;;;;8.80;3.30;;;;;;;;;;5067299;28;20120;-90
2023/03/17 05:33:28;;;;;;;8.85;3.50;;;6.50;99.90;;;;;;5073047;28;20036;-90
2023/03/17 05:35:54;;;;;;;7.75;3.17;;;6.50;99.90;;;;;;5070071;28;20055;-92
2023/03/17 05:38:20;;;;;;;10.02;3.35;;;6.50;99.90;;;;;;5035482;28;20047;-95
2023/03/17 05:40:48;;;;;;;8.90;3.47;;;6.50;99.90;;;;;;5071951;28;20044;-92
2023/03/17 05:43:18;;;;;;;8.10;3.40;;;6.60;99.90;;;;;;5060309;28;20405;-89
2023/03/17 05:45:44;;;;;;;8.13;3.30;;;6.60;99.90;;;;;;5047895;28;20046;-90
2023/03/17 05:48:12;;;;;;;8.93;3.40;;;6.60;99.90;;;;;;5047083;28;20041;-88
2023/03/17 05:50:38;;;;;;;8.43;3.33;;;6.20;99.90;;;;;;5061388;28;20040;-88
2023/03/17 05:53:05;;;;;;;10.52;3.42;;;6.60;99.90;;;;;;5043152;28;20036;-90
2023/03/17 05:55:31;;;;;;;10.82;3.45;;;;;;;;;;5045003;28;20294;-90
2023/03/17 05:57:57;;;;;;;8.55;3.40;;;6.70;99.90;;;;;;5065109;28;20071;-89
2023/03/17 06:00:23;;;;;;;8.82;3.45;;;6.70;99.90;;;;;;5031883;28;20509;-89
2023/03/17 06:02:49;;;;;;;8.10;3.03;;;6.60;99.90;;;;;;5035598;28;20067;-90
2023/03/17 06:05:15;;;;;;;8.35;3.30;;;8.10;99.90;;;;;;5044667;28;20071;-88
2023/03/17 06:07:41;;;;;;;8.85;3.08;;;6.60;99.90;;;;;;5029996;28;20051;-90
2023/03/17 06:10:08;;;;;;;8.45;3.10;;;6.80;99.90;;;;;;5058850;28;20028;-90
2023/03/17 06:12:33;;;;;;;8.65;3.15;;;6.80;99.90;;;;;;5031696;28;20049;-91
2023/03/17 06:14:59;;;;;;;7.95;2.97;;;7.80;99.90;;;;;;5043594;28;20485;-88
2023/03/17 06:17:25;;;;;;;9.52;3.17;;;7.60;99.90;;;;;;5023502;28;20103;-89
2023/03/17 06:19:50;;;;;;;7.97;3.10;;;6.90;99.90;;;;;;5042547;28;20060;-89
2023/03/17 06:22:16;;;;;;;8.93;3.45;;;7.00;99.90;;;;;;5065020;28;20036;-89
2023/03/17 06:24:42;;;;;;;8.20;3.42;;;8.60;99.90;;;;;;5015000;28;20048;-88
2023/03/17 06:27:09;;;;;;;7.90;3.10;;;7.50;99.90;;;;;;5063974;28;20033;-90
2023/03/17 06:29:36;;;;;;;8.45;2.80;;;7.10;99.90;;;;;;5063665;28;20067;-88
2023/03/17 06:32:03;;;;;;;9.27;3.17;;;7.30;99.90;;;;;;5044275;28;20040;-89
2023/03/17 06:34:29;;;;;;;8.70;3.35;;;7.30;99.90;;;;;;5048184;28;20032;-89
2023/03/17 06:36:55;;;;;;;10.07;3.28;;;7.70;99.90;;;;;;5045825;28;20047;-88
2023/03/17 06:39:21;;;;;;;9.80;2.90;;;7.40;99.90;;;;;;5048201;28;20046;-90
2023/03/17 06:41:47;;;;;;;7.97;3.08;;;7.50;99.90;;;;;;5029138;28;20044;-90
2023/03/17 06:44:13;;;;;;;9.82;3.05;;;7.50;99.90;;;;;;5047947;28;20039;-89
2023/03/17 06:46:40;;;;;;;10.70;3.30;;;7.60;99.90;;;;;;5031372;28;20132;-89
2023/03/17 06:49:06;;;;;;;9.05;3.22;;;7.70;99.90;;;;;;5047147;28;20086;-89
2023/03/17 06:51:35;;;;;;;9.75;3.13;;;7.60;99.90;;;;;;5063495;28;20124;-89
2023/03/17 06:54:01;;;;;;;9.52;3.20;;;7.70;99.90;;;;;;5060847;28;20044;-92
2023/03/17 06:56:26;;;;;;;8.52;3.40;;;7.60;99.90;;;;;;5037070;28;20047;-92
2023/03/17 06:58:52;;;;;;;8.85;3.00;;;7.70;99.90;;;;;;5050077;28;20132;-86
2023/03/17 07:01:18;;;;;;;8.75;2.90;;;7.70;99.90;;;;;;5033997;28;20064;-90
2023/03/17 07:03:44;;;;;;;8.35;3.10;;;8.10;99.90;;;;;;5050639;28;20129;-87
2023/03/17 07:06:10;;;;;;;8.32;3.00;;;7.80;99.90;;;;;;5048638;28;20059;-88
2023/03/17 07:08:35;;;;;;;8.05;3.00;;;9.40;99.90;;;;;;5064728;28;20041;-86
2023/03/17 07:11:03;;;;;;;8.50;3.30;;;7.90;99.90;;;;;;5066403;28;20041;-88
2023/03/17 07:13:30;;;;;;;8.80;3.30;;;;;;;;;;5065685;28;20040;-87
2023/03/17 07:15:56;;;;;;;8.18;2.88;;;7.90;99.90;;;;;;5051036;28;20048;-88
2023/03/17 07:18:22;;;;;;;8.35;3.30;;;7.80;99.90;;;;;;5047599;28;20040;-90
2023/03/17 07:20:48;;;;;;;9.77;3.53;;;9.30;99.90;;;;;;5050700;28;20044;-89
2023/03/17 07:23:17;;;;;;;8.35;3.40;;;8.00;99.90;;;;;;5035654;28;20048;-88
2023/03/17 07:25:46;;;;;;;8.95;3.30;;;;;;;;;;5062830;28;20813;-91
2023/03/17 07:28:15;;;;;;;9.25;3.17;;;8.10;99.90;;;;;;5072038;28;20650;-93
2023/03/17 07:30:45;;;;;;;8.05;3.10;;;8.10;99.90;;;;;;5062936;28;20064;-89
2023/03/17 07:33:12;;;;;;;9.40;3.50;;;8.20;99.90;;;;;;5070840;28;20409;-91
2023/03/17 07:35:38;;;;;;;8.05;2.92;;;8.30;99.90;;;;;;5054547;28;20037;-88
2023/03/17 07:38:04;;;;;;;10.30;3.65;;;8.30;99.90;;;;;;5017123;28;20040;-89
2023/03/17 07:40:33;;;;;;;8.85;3.28;;;8.40;99.90;;;;;;5067364;28;20041;-91
2023/03/17 07:42:59;;;;;;;9.70;3.25;;;8.50;99.90;;;;;;5034314;28;20044;-93
2023/03/17 07:45:25;;;;;;;9.63;3.53;;;9.20;99.90;;;;;;5034732;28;20049;-90
2023/03/17 07:47:51;;;;;;;8.80;3.40;;;;;;;;;;5057094;28;20041;-91
2023/03/17 07:50:17;;;;;;;8.35;3.28;;;;;;;;;;5055662;28;20048;-89
2023/03/17 07:52:46;;;;;;;9.25;3.30;;;9.00;99.90;;;;;;5058914;28;20056;-92
2023/03/17 07:55:12;;;;;;;8.90;3.08;;;9.10;99.90;;;;;;5037615;28;20072;-91
2023/03/17 07:57:39;;;;;;;10.75;3.53;;;9.20;99.90;;;;;;5065133;28;20061;-89
2023/03/17 08:00:09;;;;;;;12.13;3.47;;;9.40;99.90;;;;;;5066847;28;20036;-91
2023/03/17 08:02:36;;;;;;;9.68;3.70;;;9.40;99.90;;;;;;5059556;28;20037;-90
2023/03/17 08:05:06;;;;;;;11.82;3.38;;;9.50;99.90;;;;;;5054375;28;20047;-93
2023/03/17 08:07:33;;;;;;;10.20;3.38;;;9.50;99.90;;;;;;5048986;28;20029;-92
2023/03/17 08:09:59;;;;;;;8.35;3.28;;;9.50;99.90;;;;;;5067710;28;20036;-88
2023/03/17 08:12:25;;;;;;;10.38;3.42;;;9.40;99.90;;;;;;5065875;28;20041;-88
2023/03/17 08:14:51;;;;;;;8.70;3.40;;;9.50;99.90;;;;;;5051453;28;20072;-88
2023/03/17 08:17:18;;;;;;;9.38;3.30;;;9.60;99.90;;;;;;5046991;28;20062;-90
2023/03/17 08:19:43;;;;;;;9.63;2.88;;;9.50;99.90;;;;;;5066508;28;20040;-88
2023/03/17 08:22:10;;;;;;;9.30;3.30;;;9.60;99.90;;;;;;5014992;28;20394;-87
2023/03/17 08:24:36;;;;;;;8.70;3.22;;;9.70;99.90;;;;;;5065984;28;20044;-89
2023/03/17 08:27:02;;;;;;;9.48;3.45;;;9.70;99.90;;;;;;5062670;28;20128;-88
2023/03/17 08:29:29;;;;;;;9.35;3.40;;;9.70;99.90;;;;;;5064933;28;20044;-90
2023/03/17 08:31:56;;;;;;;9.43;3.28;;;9.60;99.90;;;;;;5051008;28;20457;-89
2023/03/17 08:34:23;;;;;;;10.13;3.55;;;9.70;99.90;;;;;;5048704;28;20036;-91
2023/03/17 08:36:49;;;;;;;8.48;3.50;;;9.80;99.90;;;;;;5066164;28;20110;-89
2023/03/17 08:39:16;;;;;;;8.40;3.10;;;9.80;99.90;;;;;;5036547;28;20186;-90
2023/03/17 08:41:42;;;;;;;7.90;3.15;;;9.80;99.90;;;;;;5068670;28;20132;-92
2023/03/17 08:44:08;;;;;;;9.70;3.10;;;9.30;99.90;;;;;;5065054;28;20072;-88
2023/03/17 08:46:34;;;;;;;8.20;3.00;;;9.80;99.90;;;;;;5038716;28;20028;-89
2023/03/17 08:49:01;;;;;;;8.88;3.38;;;9.80;99.90;;;;;;5066206;28;20055;-89
2023/03/17 08:51:30;;;;;;;9.35;3.70;;;9.80;99.90;;;;;;5070420;28;20041;-90
2023/03/17 08:53:57;;;;;;;8.50;2.85;;;9.80;99.90;;;;;;5067542;28;20124;-87
2023/03/17 08:56:23;;;;;;;9.13;3.03;;;9.80;99.90;;;;;;5048784;28;20064;-88
2023/03/17 08:58:50;;;;;;;10.15;3.58;;;10.00;99.90;;;;;;5067555;28;20094;-91
2023/03/17 09:01:17;;;;;;;8.18;3.20;;;10.10;99.90;;;;;;5035731;28;20037;-90
2023/03/17 09:03:44;;;;;;;8.70;3.47;;;10.60;99.90;;;;;;5066615;28;20079;-88
2023/03/17 09:06:11;;;;;;;9.50;3.65;;;10.10;99.90;;;;;;5049858;28;20048;-90
2023/03/17 09:08:39;;;;;;;8.70;3.40;;;10.30;99.90;;;;;;5067521;28;20049;-89
2023/03/17 09:11:07;;;;;;;9.63;3.58;;;10.30;99.90;;;;;;5062872;28;20481;-89
2023/03/17 09:13:34;;;;;;;8.90;3.30;;;10.40;99.90;;;;;;5065417;28;20044;-89
2023/03/17 09:16:00;;;;;;;9.00;3.08;;;10.40;99.90;;;;;;5035834;28;20036;-91
2023/03/17 09:18:26;;;;;;;9.77;3.80;;;11.90;99.90;;;;;;5051069;28;20040;-90
2023/03/17 09:20:52;;;;;;;8.95;3.50;;;10.50;99.90;;;;;;5067351;28;20437;-89
2023/03/17 09:23:17;;;;;;;10.05;3.60;;;10.60;99.90;;;;;;5035097;28;20044;-90
2023/03/17 09:25:43;;;;;;;9.25;3.55;;;10.70;99.90;;;;;;5053120;28;20037;-92
2023/03/17 09:28:12;;;;;;;10.25;3.65;;;10.40;99.90;;;;;;5053467;28;20133;-91
2023/03/17 09:30:41;;;;;;;9.20;3.67;;;11.00;99.90;;;;;;5054780;28;20177;-91
2023/03/17 09:33:12;;;;;;;10.10;3.70;;;11.10;99.90;;;;;;5054191;28;20489;-91
2023/03/17 09:35:39;;;;;;;9.52;3.67;;;11.10;99.90;;;;;;5067936;28;20247;-88
2023/03/17 09:38:06;;;;;;;10.63;3.95;;;11.30;99.90;;;;;;5034592;28;20250;-91
2023/03/17 09:40:38;;;;;;;8.70;3.58;;;11.40;99.90;;;;;;5035505;28;20532;-90
2023/03/17 09:43:35;;;;;;;9.07;3.47;;;11.40;99.90;;;;;;5072134;28;20047;-89
2023/03/17 09:46:14;;;;;;;12.02;3.40;;;11.40;99.90;;;;;;5054178;28;20485;-87
2023/03/17 09:49:00;;;;;;;9.07;3.67;;;11.40;99.90;;;;;;5048929;28;20044;-90
2023/03/17 09:51:28;;;;;;;9.48;3.53;;;11.40;99.90;;;;;;5070310;28;20025;-90
2023/03/17 09:54:17;;;;;;;9.70;3.70;;;11.40;99.90;;;;;;5074860;28;20563;-88
2023/03/17 09:56:49;;;;;;;9.65;3.70;;;11.40;99.90;;;;;;5082800;28;20037;-91
2023/03/17 09:59:39;;;;;;;9.93;3.63;;;11.40;99.90;;;;;;5051714;28;20075;-90
2023/03/17 10:02:15;;;;;;;9.45;3.78;;;11.50;99.90;;;;;;5072542;28;20070;-88
2023/03/17 10:04:43;;;;;;;9.88;3.90;;;11.50;99.90;;;;;;5066907;28;20108;-87
2023/03/17 10:07:14;;;;;;;8.45;3.33;;;11.60;99.90;;;;;;5033268;28;20048;-86
2023/03/17 10:10:04;;;;;;;8.88;3.67;;;11.70;99.90;;;;;;5081594;28;20063;-89
2023/03/17 10:13:05;;;;;;;12.52;4.03;;;12.00;99.90;;;;;;5048069;28;20124;-89
2023/03/17 10:15:53;;;;;;;8.65;3.53;;;12.10;99.90;;;;;;5047685;28;20068;-88
2023/03/17 10:18:25;;;;;;;10.27;3.92;;;12.20;99.90;;;;;;5045557;28;20072;-88
2023/03/17 10:21:05;;;;;;;9.38;3.90;;;12.20;99.90;;;;;;5063379;28;20060;-87
2023/03/17 10:23:34;;;;;;;10.43;3.65;;;12.30;99.90;;;;;;5078186;28;20056;-87
2023/03/17 10:26:14;;;;;;;10.38;3.67;;;13.30;99.90;;;;;;5041452;28;20556;-89
2023/03/17 10:28:43;;;;;;;8.35;3.65;;;12.50;99.90;;;;;;5062572;28;20040;-89
2023/03/17 10:31:16;;;;;;;9.65;3.58;;;12.50;99.90;;;;;;5043867;28;20163;-89
2023/03/17 10:33:45;;;;;;;9.23;3.97;;;12.50;99.90;;;;;;5063097;28;20278;-89
2023/03/17 10:36:16;;;;;;;8.55;3.50;;;12.70;99.90;;;;;;5062968;28;20056;-91
2023/03/17 10:38:53;;;;;;;8.60;3.40;;;12.90;99.90;;;;;;5047755;28;20136;-89
2023/03/17 10:41:19;;;;;;;11.48;3.85;;;13.00;99.90;;;;;;5044580;28;20037;-88
2023/03/17 10:43:49;;;;;;;10.30;3.92;;;13.20;99.90;;;;;;5061408;28;20448;-88
2023/03/17 10:46:21;;;;;;;9.48;3.70;;;13.30;99.90;;;;;;5062021;28;20382;-90
2023/03/17 10:48:57;;;;;;;9.18;3.55;;;13.40;99.90;;;;;;5057115;28;20528;-89
2023/03/17 10:51:39;;;;;;;13.48;3.92;;;13.50;99.90;;;;;;5061583;28;20107;-90
2023/03/17 10:54:16;;;;;;;11.30;3.87;;;13.60;99.90;;;;;;5046172;28;20386;-92
2023/03/17 10:56:45;;;;;;;11.88;4.10;;;13.80;99.90;;;;;;5061125;28;20048;-89
2023/03/17 10:59:24;;;;;;;10.02;3.97;;;13.80;99.90;;;;;;5060147;28;20044;-89
2023/03/17 11:01:57;;;;;;;10.77;3.80;;;13.90;99.90;;;;;;5059750;28;20076;-90
2023/03/17 11:04:34;;;;;;;9.93;4.20;;;13.90;99.90;;;;;;5062015;28;20079;-91
2023/03/17 11:07:10;;;;;;;10.00;3.92;;;14.20;99.90;;;;;;5060831;28;20040;-90
2023/03/17 11:09:36;;;;;;;9.02;3.72;;;14.10;99.90;;;;;;5063286;28;20124;-89
2023/03/17 11:12:27;;;;;;;11.95;4.22;;;14.30;99.90;;;;;;5057451;28;20072;-88
2023/03/17 11:15:06;;;;;;;11.15;4.10;;;14.50;99.90;;;;;;5061422;28;20040;-89
2023/03/17 11:17:44;;;;;;;10.02;4.00;;;14.60;99.90;;;;;;5062774;28;20032;-87
2023/03/17 11:20:37;;;;;;;10.40;4.38;;;14.50;99.90;;;;;;5060134;28;20474;-89
2023/03/17 11:23:18;;;;;;;11.25;4.15;;;14.70;99.90;;;;;;5061549;28;20121;-87
2023/03/17 11:25:48;;;;;;;9.88;4.25;;;14.60;99.90;;;;;;5062017;28;20105;-88
2023/03/17 11:28:15;;;;;;;11.07;4.15;;;14.60;99.90;;;;;;5063037;28;20075;-88
2023/03/17 11:30:56;;;;;;;9.35;3.75;;;14.60;99.90;;;;;;5062257;28;20036;-88
2023/03/17 11:33:35;;;;;;;9.70;4.00;;;14.50;99.90;;;;;;5060393;28;20235;-88
2023/03/17 11:36:07;;;;;;;10.00;3.90;;;14.60;99.90;;;;;;5061812;28;20423;-88
2023/03/17 11:38:38;;;;;;;10.73;4.65;;;14.60;99.90;;;;;;5045928;28;20037;-86
2023/03/17 11:41:10;;;;;;;12.73;3.92;;;14.80;99.90;;;;;;5065647;28;20040;-87
2023/03/17 11:43:44;;;;;;;9.88;3.95;;;14.90;99.90;;;;;;5065595;28;20503;-89
2023/03/17 11:46:27;;;;;;;11.32;4.05;;;15.00;99.90;;;;;;5048895;28;20052;-88
2023/03/17 11:49:10;;;;;;;10.38;3.92;;;15.10;99.90;;;;;;5044522;28;20043;-87
2023/03/17 11:51:44;;;;;;;8.98;3.90;;;15.20;99.90;;;;;;5063389;28;20045;-89
2023/03/17 11:54:27;;;;;;;10.00;4.28;;;15.30;99.90;;;;;;5061543;28;20101;-87
2023/03/17 11:57:03;;;;;;;11.00;4.03;;;15.40;99.90;;;;;;5060223;28;20055;-89
2023/03/17 11:59:39;;;;;;;9.63;4.03;;;15.50;99.90;;;;;;5058019;28;20040;-87
2023/03/17 12:02:29;;;;;;;11.82;4.00;;;15.60;99.90;;;;;;5063740;28;20784;-89
2023/03/17 12:05:12;;;;;;;10.77;4.50;;;;;;;;;;5080918;28;20508;-89
2023/03/17 12:07:50;;;;;;;10.05;4.25;;;15.70;99.90;;;;;;5048676;28;20405;-88
2023/03/17 12:10:23;;;;;;;10.90;4.60;;;15.80;99.90;;;;;;5040692;28;20036;-90
2023/03/17 12:12:56;;;;;;;8.63;4.00;;;15.80;99.90;;;;;;5060883;28;20402;-88
2023/03/17 12:15:46;;;;;;;12.35;4.50;;;15.90;99.90;;;;;;5043748;28;20036;-89
2023/03/17 12:18:56;;;;;;;11.95;4.55;;;16.00;99.90;;;;;;5059774;28;20041;-87
2023/03/17 12:21:25;;;;;;;10.73;4.55;;;16.10;99.90;;;;;;5059830;28;20046;-88
2023/03/17 12:24:01;;;;;;;9.57;4.07;;;16.10;99.90;;;;;;5061624;28;20370;-88
2023/03/17 12:26:33;;;;;;;11.40;4.60;;;16.20;99.90;;;;;;5061891;28;20449;-88
2023/03/17 12:29:09;;;;;;;10.57;4.60;;;16.30;99.90;;;;;;5077521;28;20047;-89
2023/03/17 12:31:40;;;;;;;10.27;4.40;;;16.30;99.90;;;;;;5060426;28;20088;-88
2023/03/17 12:34:20;;;;;;;11.30;4.82;;;16.30;99.90;;;;;;5057317;28;20151;-91
2023/03/17 12:36:47;;;;;;;11.55;4.80;;;16.20;99.90;;;;;;5059019;28;20094;-90
2023/03/17 12:39:35;;;;;;;11.13;4.82;;;16.20;99.90;;;;;;5050872;28;20493;-88
2023/03/17 12:42:29;;;;;;;11.40;5.00;;;16.20;99.90;;;;;;5064929;28;20044;-90
2023/03/17 12:45:03;;;;;;;9.85;4.57;;;16.20;99.90;;;;;;5061081;28;20037;-90
2023/03/17 12:48:06;;;;;;;13.27;4.78;;;16.40;99.90;;;;;;5045912;28;20390;-90
2023/03/17 12:51:20;;;;;;;12.18;4.97;;;16.40;99.90;;;;;;5063243;28;20182;-87
2023/03/17 12:53:48;;;;;;;11.45;4.53;;;16.40;99.90;;;;;;5004386;28;20521;-88
2023/03/17 12:56:20;;;;;;;10.40;5.00;;;16.30;99.90;;;;;;5005616;28;20044;-89
2023/03/17 12:58:51;;;;;;;11.60;4.88;;;16.20;99.90;;;;;;5036320;28;20128;-90
2023/03/17 13:01:41;;;;;;;10.70;4.88;;;16.20;99.90;;;;;;5068160;28;20174;-88
2023/03/17 13:04:22;;;;;;;11.77;5.28;;;16.30;99.90;;;;;;5066534;28;20048;-89
2023/03/17 13:07:30;;;;;;;11.20;4.97;;;16.40;99.90;;;;;;5043092;28;20040;-90
2023/03/17 13:09:56;;;;;;;12.30;4.85;;;16.40;99.90;;;;;;5047859;28;20047;-89
2023/03/17 13:12:43;;;;;;;12.23;5.80;;;16.30;99.90;;;;;;5045075;28;20485;-88